Terminal Aerodrome Forecast
Issued by NWS

Home | Current Version | Previous Version | Text Only | Print | Product List | Glossary On
Versions: 1 2 3 4 5 6 7 8 9 10 11 12 13 14 15
000
FTUS43 KAPX 171100
TAFAPN
TAF
KAPN 171120Z 1712/1812 23005KT P6SM BKN120
     FM171500 24011KT P6SM BKN110
     FM172000 27009KT P6SM BKN110
     FM180100 29005KT P6SM OVC090
     FM180400 35006KT P6SM BKN022=

USA.gov is the U.S. government's official web portal to all federal, state and local government web resources and services.